Decoded Metar for LFKF (FIGARI in CORSE ISL.) (IATA:FSC) | Meteo·Mobile Aviation Weather
aviador You're here:

LFKF Decoded Metar

FIGARI in CORSE ISL.
Report Time2018-08-21 16:00:00
UTC Time2018-08-21 16:06:26
Flight Rules vfr VFR
Wind220° at 08 kt
W.Decomp.*RWY 23: 7.9 kt HW 1.5 kt LCW
W.Rank220° ranks 8
Current wind is below 220° avg. (8.6)
Visibility9999 m
Phenomena:N/A
Clouds:N/A
Expected CloudBase > 4,400 ft AGL from Temp-Dew spread
CeilingNone
Temp31°C (ISA +16)
Dew Point20°C (52% RH)
Heat Index33.0°C
QNH1013 hPa
Density Alt2,231 ft
Elevation75 ft
Report Wrong Elevation
Raw Report
METAR LFKF 211600Z AUTO 22008KT 190V260 CAVOK 31/20 Q1013 NOSIG=

Extra information for LFKF:More info

Metar Taf Metar & Taf Last 4 Metars F.Rules Stats Wind Profile Meteogram Temp Stats Airport Information Weather charts Add Link Nearby VenuesMetar ALERT Operation Metar Decoded Social comments